Latest Coastal Weather Observations for Samuel Hill

IDQ60701

Issued at 8:02 pm EST Thursday 2 July 2015 (issued every 10 minutes, with the page automatically refreshed every 10 minutes)

About coastal observations | Map of coastal stations | Coastal observations for QLD | Marine services | Other Formats
Station Details ID: 033308 Name: SAMUEL HILL AERO Lat: -22.74 Lon: 150.66 Height: 31.0 m
Data from the previous 72 hours. | See also: Recent months at Samuel Hill
Date/Time
EST
Temp

°C
Wind Pressure Rain
since 9am
mm
Weather Cloud Vis
km
Sea
Height
m
Swell
Dir
 
Speed
knots
Gust
knots
hPa Trend Height
m
Period
s
Dir
02/08:00pm 12.6 CALM 0 0 1020.3 - 0.0 - - 10 - - - -
02/07:30pm 13.1 CALM 0 0 1020.2 - 0.0 - - 10 - - - -
02/07:00pm 13.9 CALM 0 0 1019.8 - 0.0 - - 10 - - - -
02/06:30pm 15.1 CALM 0 0 1019.2 - 0.0 - - 10 - - - -
02/06:00pm 16.8 CALM 0 0 1018.7 - 0.0 - - 10 - - - -
02/05:30pm 19.5 ESE 4 5 1018.5 - 0.0 - - 10 - - - -
02/05:00pm 21.8 SSW 6 9 1018.2 - 0.0 - - 10 - - - -
02/04:30pm 22.7 SSW 6 9 1018.3 - 0.0 - - 10 - - - -
02/04:00pm 23.0 SSW 10 14 1018.3 - 0.0 - - 10 - - - -
02/03:30pm 23.6 SW 9 15 1018.2 - 0.0 - - 10 - - - -
02/03:00pm 23.9 SSW 9 13 1018.1 - 0.0 - - 10 - - - -
02/02:30pm 23.7 SSW 8 15 1018.3 - 0.0 - - 10 - - - -
02/02:00pm 23.5 S 11 17 1018.4 - 0.0 - - 10 - - - -
02/01:30pm 23.4 S 9 13 1018.6 - 0.0 - - 10 - - - -
02/01:00pm 23.0 SSW 8 11 1019.1 - 0.0 - - 10 - - - -
02/12:30pm 23.1 SSE 8 13 1019.6 - 0.0 - - 10 - - - -
02/12:00pm 22.5 SE 8 13 1020.1 - 0.0 - - 10 - - - -
02/11:30am 22.1 SSE 8 12 1020.7 - 0.0 - - 10 - - - -
02/11:00am 21.5 SSE 7 9 1021.2 - 0.0 - - 10 - - - -
02/10:30am 20.4 S 5 8 1021.8 - 0.0 - - 10 - - - -
02/10:00am 19.1 WSW 4 6 1022.2 - 0.0 - - 10 - - - -
02/09:30am 18.0 SW 3 4 1022.3 - 0.0 - - 10 - - - -
02/09:00am 17.1 SW 3 5 1022.3 - 0.0 - - 10 - - - -
02/08:30am 15.8 CALM 0 0 1022.2 - 0.0 - - 10 - - - -
02/08:00am 14.6 SW 6 8 1022.1 - 0.0 - - 10 - - - -
02/07:30am 13.3 SW 5 6 1021.9 - 0.0 - - 10 - - - -
02/07:00am 11.8 SW 4 5 1021.6 - 0.0 - - 10 - - - -
02/06:30am 11.4 CALM 0 0 1021.2 - 0.0 - - 10 - - - -
02/06:00am 11.6 CALM 0 0 1021.0 - 0.0 - - 10 - - - -
02/05:39am 12.6 SW 5 6 1020.8 - 0.0 - - 10 - - - -
02/05:30am 12.5 SW 5 6 1020.8 - 0.0 - - 9 - - - -
02/05:21am 11.8 SW 3 5 1020.8 - 0.0 - - 5 - - - -
02/05:00am 11.9 CALM 0 2 1020.6 - 0.0 - - 10 - - - -
02/04:30am 12.0 SW 3 4 1020.7 - 0.0 - - 10 - - - -
02/04:00am 12.7 SW 3 4 1020.7 - 0.0 - - 10 - - - -
02/03:30am 14.0 SW 5 7 1020.7 - 0.0 - - 10 - - - -
02/03:00am 13.8 SW 5 6 1020.6 - 0.0 - - 10 - - - -
02/02:30am 13.7 SW 5 6 1020.8 - 0.0 - - 10 - - - -
02/02:00am 12.6 SW 1 4 1020.9 - 0.0 - - 10 - - - -
02/01:30am 12.7 CALM 0 0 1021.2 - 0.0 - - 10 - - - -
02/01:00am 12.8 CALM 0 0 1021.4 - 0.0 - - 10 - - - -
02/12:30am 13.1 SW 5 6 1021.4 - 0.0 - - 10 - - - -
02/12:00am 13.1 CALM 0 0 1021.6 - 0.0 - - 27 - - - -
 
Date/Time
EST
Temp

°C
Wind Pressure Rain
since 9am
mm
Weather Cloud Vis
km
Sea
Height
m
Swell
Dir
 
Speed
knots
Gust
knots
hPa Trend Height
m
Period
s
Dir
01/11:30pm 13.8 CALM 0 0 1021.9 - 0.0 - - 10 - - - -
01/11:00pm 14.0 CALM 0 0 1021.9 - 0.0 - - 10 - - - -
01/10:30pm 13.9 CALM 0 0 1022.0 - 0.0 - - 10 - - - -
01/10:00pm 14.4 CALM 0 0 1022.1 - 0.0 - - 10 - - - -
01/09:30pm 14.7 CALM 0 0 1022.1 - 0.0 - - 10 - - - -
01/09:00pm 14.9 CALM 0 0 1022.1 - 0.0 - - 10 - - - -
01/08:30pm 15.0 CALM 0 0 1022.0 - 0.0 - - 10 - - - -
01/08:00pm 15.7 CALM 0 4 1021.7 - 0.0 - - 10 - - - -
01/07:30pm 15.7 CALM 0 0 1021.5 - 0.0 - - 10 - - - -
01/07:00pm 16.6 ENE 1 3 1021.3 - 0.0 - - 10 - - - -
01/06:30pm 17.2 NNE 4 4 1020.9 - 0.0 - - 10 - - - -
01/06:00pm 19.0 S 5 5 1020.4 - 0.0 - - 10 - - - -
01/05:30pm 20.0 SSE 5 6 1020.3 - 0.0 - - 10 - - - -
01/05:00pm 21.2 SE 5 6 1020.2 - 0.0 - - 10 - - - -
01/04:30pm 22.1 SE 6 9 1020.0 - 0.0 - - 10 - - - -
01/04:00pm 22.5 ESE 8 10 1020.0 - 0.0 - - 10 - - - -
01/03:30pm 23.0 ESE 8 10 1020.0 - 0.0 - - 10 - - - -
01/03:00pm 23.2 ESE 7 11 1020.1 - 0.0 - - 10 - - - -
01/02:30pm 23.1 SE 8 12 1020.3 - 0.0 - - 10 - - - -
01/02:00pm 23.2 ESE 8 12 1020.5 - 0.0 - Partly cloudy 10 - - - -
01/01:30pm 23.2 SE 7 9 1020.7 - 0.0 - Partly cloudy 10 - - - -
01/01:00pm 22.4 SE 7 10 1021.2 - 0.0 - Partly cloudy 10 - - - -
01/12:30pm 23.0 SE 8 11 1021.8 - 0.0 - Partly cloudy 10 - - - -
01/12:00pm 22.8 SE 9 17 1022.5 - 0.0 - Partly cloudy 10 - - - -
01/11:30am 22.2 SSE 9 14 1022.9 - 0.0 - Partly cloudy 10 - - - -
01/11:00am 21.8 SSE 9 13 1023.2 - 0.0 - Partly cloudy 10 - - - -
01/10:30am 21.7 SE 8 13 1023.5 - 0.0 - Partly cloudy 10 - - - -
01/10:00am 21.3 SSE 9 14 1023.6 - 0.0 - Partly cloudy 10 - - - -
01/09:30am 20.8 SSE 7 11 1023.8 - 0.0 - Cloudy 10 - - - -
01/09:00am 20.3 SSE 6 9 1023.6 - 4.8 - - 10 - - - -
01/08:30am 19.1 SSE 5 8 1023.4 - 4.8 - - 10 - - - -
01/08:00am 18.4 SSE 5 7 1023.4 - 4.8 - - 10 - - - -
01/07:30am 17.4 SSE 5 7 1023.4 - 4.8 - Partly cloudy 10 - - - -
01/07:00am 17.0 S 4 6 1022.9 - 4.8 - Partly cloudy 10 - - - -
01/06:30am 17.2 SE 3 5 1022.8 - 4.8 - Cloudy 10 - - - -
01/06:00am 17.6 SSW 3 4 1022.8 - 4.8 Recent precip. Cloudy 10 - - - -
01/05:30am 17.8 SSE 4 6 1022.3 - 4.8 - Partly cloudy 10 - - - -
01/05:23am 17.9 S 5 6 1022.3 - 4.8 - Partly cloudy 10 - - - -
01/05:00am 17.8 S 4 6 1022.2 - 4.6 - Partly cloudy 10 - - - -
01/04:30am 16.9 CALM 0 3 1022.0 - 4.6 - Partly cloudy 10 - - - -
01/04:00am 16.7 CALM 0 0 1022.0 - 4.6 - Cloudy 10 - - - -
01/03:30am 17.1 SSW 3 4 1022.0 - 4.6 - Partly cloudy 10 - - - -
01/03:00am 17.4 CALM 0 0 1022.0 - 4.6 - Cloudy 10 - - - -
01/02:30am 17.6 SSW 3 4 1022.0 - 4.6 - Partly cloudy 10 - - - -
01/02:00am 17.9 S 2 4 1022.0 - 4.6 - Partly cloudy 10 - - - -
01/01:30am 18.1 CALM 0 0 1022.3 - 4.6 - Partly cloudy 10 - - - -
01/01:20am 18.1 CALM 0 0 1022.5 - 4.6 - Partly cloudy 10 - - - -
01/01:15am 18.2 CALM 0 0 1022.6 - 4.6 - Partly cloudy 10 - - - -
01/01:09am 18.3 ESE 1 3 1022.7 - 4.6 - Partly cloudy 10 - - - -
01/01:05am 18.2 ESE 2 3 1022.9 - 4.6 - Partly cloudy 7 - - - -
01/01:00am 18.2 ESE 1 3 1023.0 - 4.6 - Partly cloudy 4 - - - -
01/12:51am 18.2 CALM 0 0 1023.1 - 4.4 - Partly cloudy 4 - - - -
01/12:50am 18.2 CALM 0 0 1023.1 - 4.4 - Partly cloudy 5 - - - -
01/12:37am 18.1 ENE 3 4 1023.0 - 4.0 - Partly cloudy 10 - - - -
01/12:30am 18.1 ENE 2 4 1023.1 - 4.0 - Partly cloudy 10 - - - -
01/12:28am 18.1 ENE 1 3 1023.1 - 4.0 - Partly cloudy 10 - - - -
01/12:18am 18.1 CALM 0 0 1023.4 - 4.0 - Partly cloudy 7 - - - -
01/12:00am 18.1 E 1 4 1023.6 - 3.8 - Cloudy 10 - - - -
 
Date/Time
EST
Temp

°C
Wind Pressure Rain
since 9am
mm
Weather Cloud Vis
km
Sea
Height
m
Swell
Dir
 
Speed
knots
Gust
knots
hPa Trend Height
m
Period
s
Dir
30/11:41pm 18.0 S 3 4 1023.6 - 3.8 - Partly cloudy 10 - - - -
30/11:30pm 18.0 SSE 4 5 1023.7 - 3.8 - Partly cloudy 10 - - - -
30/11:00pm 17.9 S 6 8 1023.8 - 3.8 - Partly cloudy 10 - - - -
30/10:30pm 17.9 S 4 6 1023.7 - 3.8 - Partly cloudy 10 - - - -
30/10:21pm 18.0 SSE 4 5 1023.8 - 3.8 - Partly cloudy 10 - - - -
30/10:05pm 18.1 SSE 3 5 1023.8 - 3.8 - Partly cloudy 10 - - - -
30/10:00pm 18.1 S 4 6 1023.8 - 3.8 - Partly cloudy 9 - - - -
30/09:47pm 18.2 SSE 5 8 1023.9 - 3.8 - Partly cloudy 7 - - - -
30/09:30pm 18.2 SE 7 11 1023.9 - 3.6 - Partly cloudy 4 - - - -
30/09:00pm 18.3 SE 7 11 1023.9 - 2.4 Rain Cloudy 3 - - - -
30/08:30pm 18.3 SE 6 10 1023.8 - 1.2 - Partly cloudy 4 - - - -
30/08:00pm 18.6 ESE 8 12 1023.9 - 0.2 - Partly cloudy 4 - - - -
30/07:56pm 18.6 ESE 7 12 1023.9 - 0.0 - Partly cloudy 7 - - - -
30/07:30pm 18.2 SE 5 6 1023.3 - 0.0 - Partly cloudy 10 - - - -
30/07:02pm 18.2 SSE 7 12 1023.3 - 0.0 - Partly cloudy 10 - - - -
30/07:00pm 18.2 SSE 8 12 1023.3 - 0.0 - Partly cloudy 10 - - - -
30/06:34pm 19.5 SSE 7 11 1023.1 - 0.0 - Partly cloudy 7 - - - -
30/06:30pm 19.6 SSE 6 9 1022.9 - 0.0 - Partly cloudy 10 - - - -
30/06:00pm 19.8 SSE 7 12 1022.7 - 0.0 - Cloudy 10 - - - -
30/05:30pm 20.0 SSE 8 14 1022.5 - 0.0 - Partly cloudy 10 - - - -
30/05:00pm 20.0 SSE 7 10 1022.2 - 0.0 - Partly cloudy 10 - - - -
30/04:30pm 20.4 SE 7 13 1022.4 - 0.0 - Partly cloudy 10 - - - -
30/04:00pm 20.6 SSE 9 15 1022.2 - 0.0 - Partly cloudy 10 - - - -
30/03:30pm 21.4 SE 10 15 1021.9 - 0.0 - Partly cloudy 10 - - - -
30/03:00pm 20.8 SE 10 17 1021.8 - 0.0 - Mostly cloudy 10 - - - -
30/02:30pm 21.4 SE 12 19 1022.1 - 0.0 - Partly cloudy 10 - - - -
30/02:00pm 21.0 SE 11 17 1022.2 - 0.0 - Partly cloudy 10 - - - -
30/01:40pm 20.5 SE 10 15 1022.3 - 0.0 - Partly cloudy 10 - - - -
30/01:30pm 20.3 SE 8 15 1022.3 - 0.0 - Partly cloudy 7 - - - -
30/01:14pm 20.5 SE 10 13 1022.5 - 0.0 - Partly cloudy 7 - - - -
30/01:00pm 20.8 SE 11 15 1022.6 - 0.0 - Partly cloudy 10 - - - -
30/12:30pm 21.4 SE 10 17 1023.0 - 0.0 - Partly cloudy 10 - - - -
30/12:00pm 21.9 SE 11 15 1023.5 - 0.0 - Mostly cloudy 10 - - - -
30/11:30am 21.7 ESE 10 16 1023.9 - 0.0 - Partly cloudy 10 - - - -
30/11:00am 21.1 SSE 9 15 1024.1 - 0.0 - Partly cloudy 10 - - - -
30/10:30am 20.0 SE 8 13 1024.4 - 0.0 - Cloudy 10 - - - -
30/10:00am 19.8 SSE 10 16 1024.7 - 0.0 - Partly cloudy 10 - - - -
30/09:36am 19.7 SSE 11 16 1024.8 - 0.0 - Partly cloudy 10 - - - -
30/09:30am 19.5 SSE 11 16 1024.8 - 0.0 - Cloudy 10 - - - -
30/09:00am 19.4 SSE 9 13 1024.7 - 4.4 - Mostly cloudy 10 - - - -
30/08:30am 19.1 SE 8 13 1024.7 - 4.4 - Partly cloudy 10 - - - -
30/08:00am 18.5 SSE 7 11 1024.5 - 4.4 - Cloudy 10 - - - -
30/07:30am 18.2 SSE 6 10 1024.2 - 4.4 - Cloudy 10 - - - -
30/07:01am 17.9 SSE 5 8 1023.9 - 4.4 - Partly cloudy 10 - - - -
30/07:00am 17.9 SSE 5 8 1023.9 - 4.4 - Partly cloudy 10 - - - -
30/06:30am 18.1 ESE 5 9 1023.7 - 4.2 - Partly cloudy 4 - - - -
30/06:02am 18.6 SSE 6 9 1023.1 - 3.2 - Partly cloudy 2 - - - -
30/06:00am 18.6 SE 6 12 1023.1 - 3.0 Rain Cloudy 2 - - - -
30/05:55am 18.9 SSE 7 12 1023.2 - 1.4 - Partly cloudy 7 - - - -
30/05:30am 19.6 SE 6 9 1022.9 - 1.2 - Partly cloudy 10 - - - -
30/05:00am 19.4 SE 7 10 1022.5 - 1.2 - Partly cloudy 10 - - - -
30/04:30am 20.0 SE 8 12 1022.3 - 1.2 - Partly cloudy 10 - - - -
30/04:00am 20.3 SE 8 12 1022.3 - 1.2 - Partly cloudy 10 - - - -
30/03:30am 20.0 SE 7 12 1022.5 - 1.2 - Partly cloudy 10 - - - -
30/03:00am 19.7 SE 9 13 1022.7 - 1.2 Recent precip. Cloudy 10 - - - -
30/02:30am 18.8 SE 4 7 1022.7 - 1.0 - Partly cloudy 10 - - - -
30/02:24am 18.9 SE 5 6 1022.8 - 1.0 - Partly cloudy 10 - - - -
30/02:00am 19.2 SE 6 8 1023.2 - 0.6 - Partly cloudy 8 - - - -
30/01:40am 19.5 SE 6 9 1023.5 - 0.6 - Partly cloudy 7 - - - -
30/01:30am 20.2 SE 7 11 1023.4 - 0.6 - Partly cloudy 10 - - - -
30/01:00am 20.4 ESE 7 13 1023.7 - 0.6 - Partly cloudy 10 - - - -
30/12:30am 20.4 SE 8 12 1023.9 - 0.6 - Partly cloudy 10 - - - -
30/12:00am 20.6 ESE 9 14 1024.0 - 0.6 - Cloudy 10 - - - -
 
Date/Time
EST
Temp

°C
Wind Pressure Rain
since 9am
mm
Weather Cloud Vis
km
Sea
Height
m
Swell
Dir
 
Speed
knots
Gust
knots
hPa Trend Height
m
Period
s
Dir
29/11:30pm 20.5 ESE 8 13 1024.3 - 0.6 - Cloudy 10 - - - -
29/11:00pm 19.8 ESE 7 11 1024.6 - 0.6 - Partly cloudy 10 - - - -
29/10:57pm 19.8 ESE 7 11 1024.6 - 0.6 - Partly cloudy 10 - - - -
29/10:32pm 19.6 ENE 5 7 1024.8 - 0.4 - Partly cloudy 7 - - - -
29/10:30pm 19.8 ENE 5 7 1024.9 - 0.4 - Partly cloudy 10 - - - -
29/10:00pm 20.5 ESE 6 8 1024.7 - 0.4 - Partly cloudy 10 - - - -
29/09:30pm 20.4 SE 6 11 1024.7 - 0.4 - Partly cloudy 10 - - - -
29/09:00pm 20.8 SE 7 11 1024.6 - 0.4 - Cloudy 10 - - - -
29/08:30pm 20.3 SE 7 10 1024.6 - 0.4 - Partly cloudy 10 - - - -

Other Formats:

Comma delimited format used in spreadsheet applications
http://www.bom.gov.au/fwo/IDQ60701/IDQ60701.94370.axf

JavaScript Object Notation format (JSON) in row-major order
http://www.bom.gov.au/fwo/IDQ60701/IDQ60701.94370.json